createdAt,value
2022-12-05T00:02:06.362Z,0.31
2022-12-05T00:04:52.932Z,0.33
2022-12-05T00:07:42.398Z,0.33
2022-12-05T00:10:29.688Z,0.31
2022-12-05T00:13:16.504Z,0.27
2022-12-05T00:16:08.020Z,0.28
2022-12-05T00:18:54.903Z,0.27
2022-12-05T00:21:41.346Z,0.16
2022-12-05T00:24:31.202Z,0.02
2022-12-05T00:27:17.413Z,0.23
2022-12-05T00:30:04.650Z,0.31
2022-12-05T00:32:50.724Z,0.27
2022-12-05T00:35:38.066Z,-0.06
2022-12-05T00:38:26.113Z,0.18
2022-12-05T00:41:15.472Z,0.11
2022-12-05T00:44:03.093Z,0.24
2022-12-05T00:46:49.618Z,0.10
2022-12-05T00:49:35.930Z,0.04
2022-12-05T00:52:25.549Z,0.18
2022-12-05T00:55:14.521Z,0.11
2022-12-05T00:58:01.355Z,-0.15
2022-12-05T01:00:47.563Z,-0.24
2022-12-05T01:03:34.436Z,0.16
2022-12-05T01:06:21.290Z,0.14
2022-12-05T01:09:08.900Z,0.13
2022-12-05T01:11:55.410Z,0.10
2022-12-05T01:14:45.014Z,0.09
2022-12-05T01:17:31.526Z,-0.16
2022-12-05T01:20:20.750Z,-0.03
2022-12-05T01:23:07.826Z,-0.26
2022-12-05T01:25:58.579Z,-0.05
2022-12-05T01:28:47.035Z,-0.01
2022-12-05T01:31:36.050Z,-0.02
2022-12-05T01:34:23.331Z,0.08
2022-12-05T01:37:10.060Z,-0.03
2022-12-05T01:39:57.241Z,0.04
2022-12-05T01:42:45.736Z,-0.39
2022-12-05T01:45:35.873Z,-0.03
2022-12-05T01:48:28.130Z,-0.05
2022-12-05T01:51:15.073Z,-0.16
2022-12-05T01:54:02.386Z,-0.05
2022-12-05T01:56:52.727Z,-0.02
2022-12-05T01:59:44.284Z,-0.17
2022-12-05T02:02:32.557Z,-0.02
2022-12-05T02:05:32.159Z,-0.05
2022-12-05T02:08:21.752Z,-0.05
2022-12-05T02:11:09.048Z,-0.06
2022-12-05T02:14:12.200Z,-0.09
2022-12-05T02:16:59.172Z,-0.41
2022-12-05T02:20:16.481Z,-0.09
2022-12-05T02:23:22.378Z,-0.49
2022-12-05T02:26:47.511Z,-0.06
2022-12-05T02:30:04.917Z,-0.06
2022-12-05T02:33:11.117Z,-0.02
2022-12-05T02:36:12.579Z,0.01
2022-12-05T02:39:25.215Z,0.01
2022-12-05T02:42:47.364Z,-0.07
2022-12-05T02:45:36.265Z,-0.18
2022-12-05T02:48:24.265Z,-0.18
2022-12-05T02:51:13.212Z,-0.06
2022-12-05T02:54:03.274Z,0.05
2022-12-05T02:56:50.339Z,-0.24
2022-12-05T02:59:37.152Z,0.05
2022-12-05T03:02:29.024Z,0.06
2022-12-05T03:05:36.505Z,0.03
2022-12-05T03:08:26.288Z,0.02
2022-12-05T03:11:12.795Z,0.02
2022-12-05T03:14:01.697Z,-0.03
2022-12-05T03:16:51.746Z,-0.34
2022-12-05T03:20:01.001Z,-0.05
2022-12-05T03:22:58.334Z,0.02
2022-12-05T03:25:56.895Z,-0.37
2022-12-05T03:29:18.562Z,-0.10
2022-12-05T03:32:30.880Z,-0.32
2022-12-05T03:35:25.397Z,-0.02
2022-12-05T03:38:18.542Z,-0.01
2022-12-05T03:41:17.120Z,-0.02
2022-12-05T03:44:07.254Z,-0.02
2022-12-05T03:46:56.366Z,-0.03
2022-12-05T03:49:49.145Z,-0.04
2022-12-05T03:53:19.477Z,-0.02
2022-12-05T03:56:13.009Z,-0.02
2022-12-05T03:59:10.307Z,-0.01
2022-12-05T04:01:58.681Z,-0.13
2022-12-05T04:05:10.445Z,-0.04
2022-12-05T04:08:05.279Z,-0.04
2022-12-05T04:10:54.473Z,-0.12
2022-12-05T04:13:42.236Z,-0.01
2022-12-05T04:16:52.896Z,-0.07
2022-12-05T04:20:03.221Z,-0.09
2022-12-05T04:22:50.918Z,-0.07
2022-12-05T04:25:44.506Z,-0.16
2022-12-05T04:29:08.981Z,-0.33
2022-12-05T04:32:00.093Z,-0.50
2022-12-05T04:34:51.026Z,-0.41
2022-12-05T04:37:39.863Z,-0.06
2022-12-05T04:40:33.453Z,-0.21
2022-12-05T04:43:20.316Z,-0.23
2022-12-05T04:46:09.482Z,-0.17
2022-12-05T04:49:00.137Z,-0.09
2022-12-05T04:51:47.252Z,-0.08
2022-12-05T04:54:47.083Z,-0.11
2022-12-05T04:57:38.065Z,-0.10
2022-12-05T05:00:24.779Z,-0.13
2022-12-05T05:03:24.011Z,-0.09
2022-12-05T05:06:14.138Z,-0.33
2022-12-05T05:09:01.054Z,-0.17
2022-12-05T05:11:47.408Z,-0.14
2022-12-05T05:14:34.331Z,-0.17
2022-12-05T05:17:23.648Z,-0.19
2022-12-05T05:20:27.092Z,-0.16
2022-12-05T05:23:19.542Z,-0.08
2022-12-05T05:26:06.460Z,-0.34
2022-12-05T05:28:53.164Z,-0.19
2022-12-05T05:31:41.174Z,-0.10
2022-12-05T05:34:28.914Z,-0.17
2022-12-05T05:37:15.388Z,-0.09
2022-12-05T05:40:06.206Z,-0.15
2022-12-05T05:42:56.424Z,-0.31
2022-12-05T05:45:42.679Z,-0.09
2022-12-05T05:48:29.331Z,-0.47
2022-12-05T05:51:17.011Z,-0.18
2022-12-05T05:54:04.080Z,-0.13
2022-12-05T05:56:50.761Z,-0.52
2022-12-05T05:59:37.129Z,-0.16
2022-12-05T06:02:24.043Z,-0.20
2022-12-05T06:05:11.061Z,-0.16
2022-12-05T06:07:57.336Z,-0.37
2022-12-05T06:10:44.236Z,-0.26
2022-12-05T06:13:30.628Z,-0.15
2022-12-05T06:16:18.628Z,-0.13
2022-12-05T06:19:05.094Z,-0.21
2022-12-05T06:21:52.076Z,-0.15
2022-12-05T06:24:38.762Z,-0.25
2022-12-05T06:27:26.266Z,-0.10
2022-12-05T06:30:15.552Z,-0.24
2022-12-05T06:33:02.715Z,-0.20
2022-12-05T06:35:49.366Z,-0.17
2022-12-05T06:38:41.748Z,-0.09
2022-12-05T06:41:28.726Z,-0.09
2022-12-05T06:44:15.493Z,-0.02
2022-12-05T06:47:02.225Z,-0.13
2022-12-05T06:49:48.734Z,-0.04
2022-12-05T06:52:35.586Z,-0.30
2022-12-05T06:55:22.633Z,-0.19
2022-12-05T06:58:08.968Z,-0.03
2022-12-05T07:01:14.749Z,-0.02
2022-12-05T07:04:01.793Z,-0.20
2022-12-05T07:06:51.157Z,-0.02
2022-12-05T07:09:46.523Z,-0.04
2022-12-05T07:12:34.001Z,-0.15
2022-12-05T07:15:20.043Z,0.00
2022-12-05T07:18:07.430Z,-0.13
2022-12-05T07:21:14.542Z,-0.04
2022-12-05T07:24:12.545Z,-0.28
2022-12-05T07:27:00.320Z,-0.23
2022-12-05T07:29:47.939Z,-0.01
2022-12-05T07:32:34.838Z,-0.17
2022-12-05T07:35:21.502Z,-0.01
2022-12-05T07:38:07.699Z,-0.01
2022-12-05T07:40:55.025Z,-0.04
2022-12-05T07:43:42.163Z,-0.10
2022-12-05T07:46:29.511Z,-0.13
2022-12-05T07:49:18.563Z,-0.06
2022-12-05T07:52:04.993Z,-0.38
2022-12-05T07:54:51.252Z,-0.03
2022-12-05T07:57:38.221Z,-0.11
2022-12-05T08:00:24.904Z,0.05
2022-12-05T08:03:11.825Z,0.03
2022-12-05T08:06:10.416Z,0.03
2022-12-05T08:08:58.152Z,-0.03
2022-12-05T08:11:49.539Z,0.03
2022-12-05T08:14:40.317Z,0.05
2022-12-05T08:17:30.524Z,0.04
2022-12-05T08:20:19.122Z,0.05
2022-12-05T08:23:25.713Z,0.13
2022-12-05T08:26:15.403Z,0.07
2022-12-05T08:29:24.422Z,0.03
2022-12-05T08:32:11.015Z,0.12
2022-12-05T08:34:57.742Z,0.12
2022-12-05T08:37:44.115Z,0.09
2022-12-05T08:40:33.280Z,0.13
2022-12-05T08:43:19.870Z,0.16
2022-12-05T08:46:06.828Z,0.05
2022-12-05T08:48:53.731Z,0.18
2022-12-05T08:51:41.603Z,0.05
2022-12-05T08:54:28.450Z,0.23
2022-12-05T08:57:15.168Z,0.20
2022-12-05T09:00:01.807Z,-0.02
2022-12-05T09:02:52.303Z,0.31
2022-12-05T09:05:39.579Z,0.33
2022-12-05T09:08:26.479Z,0.21
2022-12-05T09:11:35.034Z,0.36
2022-12-05T09:14:21.979Z,0.36
2022-12-05T09:17:08.586Z,0.40
2022-12-05T09:19:55.130Z,0.33
2022-12-05T09:22:43.000Z,0.28
2022-12-05T09:25:29.784Z,0.14
2022-12-05T09:28:16.755Z,0.29
2022-12-05T09:31:05.557Z,0.28
2022-12-05T09:33:52.534Z,0.24
2022-12-05T09:36:38.781Z,0.04
2022-12-05T09:39:26.362Z,0.42
2022-12-05T09:42:37.596Z,0.47
2022-12-05T09:45:29.762Z,0.33
2022-12-05T09:48:17.020Z,0.53
2022-12-05T09:51:04.110Z,0.35
2022-12-05T09:53:50.975Z,0.47
2022-12-05T09:56:39.306Z,0.14
2022-12-05T09:59:25.552Z,0.60
2022-12-05T10:02:53.660Z,0.63
2022-12-05T10:05:52.304Z,0.62
2022-12-05T10:08:54.572Z,0.62
2022-12-05T10:11:52.093Z,0.55
2022-12-05T10:14:54.254Z,0.62
2022-12-05T10:17:44.314Z,0.48
2022-12-05T10:20:46.084Z,0.53
2022-12-05T10:23:57.210Z,0.24
2022-12-05T10:26:47.356Z,0.62
2022-12-05T10:29:36.370Z,0.42
2022-12-05T10:32:31.067Z,0.56
2022-12-05T10:35:25.538Z,0.55
2022-12-05T10:38:25.767Z,0.57
2022-12-05T10:41:14.484Z,0.55
2022-12-05T10:44:00.970Z,0.29
2022-12-05T10:46:47.944Z,0.40
2022-12-05T10:49:35.845Z,0.68
2022-12-05T10:52:22.066Z,0.67
2022-12-05T10:55:14.837Z,0.65
2022-12-05T10:58:29.306Z,0.51
2022-12-05T11:01:16.916Z,0.53
2022-12-05T11:04:14.062Z,0.24
2022-12-05T11:07:11.479Z,0.55
2022-12-05T11:10:26.645Z,0.59
2022-12-05T11:13:24.639Z,0.65
2022-12-05T11:16:32.843Z,0.62
2022-12-05T11:19:33.045Z,0.69
2022-12-05T11:22:34.594Z,0.22
2022-12-05T11:25:31.737Z,0.71
2022-12-05T11:28:51.194Z,0.75
2022-12-05T11:31:38.452Z,0.72
2022-12-05T11:34:32.320Z,0.68
2022-12-05T11:37:24.600Z,0.69
2022-12-05T11:40:25.296Z,0.39
2022-12-05T11:43:36.933Z,0.69
2022-12-05T11:47:00.163Z,0.67
2022-12-05T11:50:12.264Z,0.70
2022-12-05T11:53:24.417Z,0.56
2022-12-05T11:56:35.628Z,0.71
2022-12-05T11:59:35.084Z,0.71
2022-12-05T12:03:00.283Z,0.53
2022-12-05T12:06:08.057Z,0.70
2022-12-05T12:09:14.976Z,0.45
2022-12-05T12:12:20.350Z,0.80
2022-12-05T12:15:30.253Z,0.80
2022-12-05T12:18:36.128Z,0.87
2022-12-05T12:21:38.222Z,0.87
2022-12-05T12:24:34.140Z,0.82
2022-12-05T12:27:40.869Z,0.51
2022-12-05T12:30:27.683Z,0.91
2022-12-05T12:33:27.204Z,0.94
2022-12-05T12:36:29.914Z,0.76
2022-12-05T12:39:53.653Z,0.96
2022-12-05T12:42:57.092Z,0.73
2022-12-05T12:45:48.122Z,0.95
2022-12-05T12:48:54.312Z,0.92
2022-12-05T12:51:53.506Z,0.51
2022-12-05T12:55:03.550Z,0.64
2022-12-05T12:57:57.532Z,0.85
2022-12-05T13:00:55.622Z,0.83
2022-12-05T13:03:51.355Z,0.79
2022-12-05T13:06:55.362Z,0.62
2022-12-05T13:09:53.529Z,0.75
2022-12-05T13:12:41.744Z,0.73
2022-12-05T13:15:34.891Z,0.75
2022-12-05T13:18:24.242Z,0.76
2022-12-05T13:21:10.812Z,0.68
2022-12-05T13:24:03.456Z,0.67
2022-12-05T13:26:50.931Z,0.79
2022-12-05T13:29:41.712Z,0.58
2022-12-05T13:32:28.454Z,0.82
2022-12-05T13:35:14.693Z,0.79
2022-12-05T13:38:19.706Z,0.40
2022-12-05T13:41:25.192Z,0.71
2022-12-05T13:44:15.563Z,0.46
2022-12-05T13:47:07.436Z,0.83
2022-12-05T13:49:56.383Z,0.58
2022-12-05T13:52:49.624Z,0.83
2022-12-05T13:55:37.628Z,0.89
2022-12-05T13:58:26.449Z,0.91
2022-12-05T14:01:28.323Z,0.91
2022-12-05T14:04:42.386Z,0.92
2022-12-05T14:07:42.161Z,0.76
2022-12-05T14:10:28.892Z,0.92
2022-12-05T14:13:15.661Z,0.95
2022-12-05T14:16:42.967Z,0.77
2022-12-05T14:19:39.362Z,0.99
2022-12-05T14:22:31.942Z,1.01
2022-12-05T14:25:45.506Z,0.64
2022-12-05T14:28:48.556Z,1.02
2022-12-05T14:32:04.225Z,0.85
2022-12-05T14:35:17.390Z,1.04
2022-12-05T14:38:06.164Z,1.02
2022-12-05T14:40:52.650Z,0.72
2022-12-05T14:43:40.022Z,0.75
2022-12-05T14:46:32.347Z,1.01
2022-12-05T14:49:38.089Z,1.07
2022-12-05T14:52:29.048Z,0.95
2022-12-05T14:55:22.126Z,0.98
2022-12-05T14:58:21.549Z,0.97
2022-12-05T15:01:40.842Z,1.14
2022-12-05T15:04:44.440Z,0.77
2022-12-05T15:07:36.726Z,1.15
2022-12-05T15:10:32.746Z,0.94
2022-12-05T15:13:25.274Z,1.22
2022-12-05T15:16:17.131Z,1.26
2022-12-05T15:19:31.957Z,1.08
2022-12-05T15:22:20.695Z,1.18
2022-12-05T15:25:34.875Z,1.21
2022-12-05T15:28:21.246Z,1.27
2022-12-05T15:31:12.149Z,1.27
2022-12-05T15:34:07.725Z,1.33
2022-12-05T15:37:04.109Z,1.33
2022-12-05T15:40:08.962Z,1.34
2022-12-05T15:42:57.665Z,1.36
2022-12-05T15:45:48.508Z,1.35
2022-12-05T15:48:37.937Z,0.96
2022-12-05T15:51:39.984Z,1.35
2022-12-05T15:54:48.496Z,1.33
2022-12-05T15:57:46.609Z,1.36
2022-12-05T16:00:41.033Z,1.01
2022-12-05T16:03:49.705Z,1.39
2022-12-05T16:06:43.467Z,1.06
2022-12-05T16:09:34.361Z,1.34
2022-12-05T16:12:39.725Z,1.37
2022-12-05T16:15:32.896Z,1.42
2022-12-05T16:18:28.194Z,1.43
2022-12-05T16:21:39.173Z,1.51
2022-12-05T16:24:31.676Z,1.38
2022-12-05T16:27:44.177Z,1.38
2022-12-05T16:30:40.498Z,1.54
2022-12-05T16:33:30.129Z,1.58
2022-12-05T16:36:17.042Z,1.56
2022-12-05T16:39:19.198Z,1.57
2022-12-05T16:42:23.979Z,1.55
2022-12-05T16:45:42.703Z,1.58
2022-12-05T16:48:31.561Z,1.50
2022-12-05T16:51:26.182Z,1.50
2022-12-05T16:54:23.208Z,1.47
2022-12-05T16:57:15.716Z,1.52
2022-12-05T17:00:07.948Z,1.45
2022-12-05T17:03:25.650Z,1.66
2022-12-05T17:06:15.530Z,1.60
2022-12-05T17:09:02.793Z,1.56
2022-12-05T17:12:37.251Z,1.72
2022-12-05T17:15:25.682Z,1.63
2022-12-05T17:18:25.274Z,1.69
2022-12-05T17:21:19.491Z,1.69
2022-12-05T17:24:07.549Z,1.67
2022-12-05T17:26:54.621Z,1.69
2022-12-05T17:29:41.315Z,1.71
2022-12-05T17:32:28.702Z,1.66
2022-12-05T17:35:17.827Z,1.57
2022-12-05T17:38:07.855Z,1.73
2022-12-05T17:40:56.754Z,1.36
2022-12-05T17:44:22.432Z,1.77
2022-12-05T17:47:20.052Z,1.66
2022-12-05T17:50:21.642Z,1.75
2022-12-05T17:53:20.146Z,1.68
2022-12-05T17:56:07.261Z,1.60
2022-12-05T17:58:53.967Z,1.75
2022-12-05T18:01:43.291Z,1.80
2022-12-05T18:04:30.112Z,1.80
2022-12-05T18:07:18.742Z,1.73
2022-12-05T18:10:12.392Z,1.84
2022-12-05T18:12:59.298Z,1.68
2022-12-05T18:15:48.522Z,1.81
2022-12-05T18:18:35.484Z,1.68
2022-12-05T18:21:22.492Z,1.66
2022-12-05T18:24:09.195Z,1.78
2022-12-05T18:26:56.301Z,1.86
2022-12-05T18:29:42.919Z,1.85
2022-12-05T18:32:34.144Z,1.67
2022-12-05T18:35:50.403Z,1.88
2022-12-05T18:38:38.806Z,1.92
2022-12-05T18:41:27.394Z,1.94
2022-12-05T18:44:14.316Z,1.85
2022-12-05T18:47:00.626Z,2.00
2022-12-05T18:49:48.011Z,1.98
2022-12-05T18:52:35.655Z,1.81
2022-12-05T18:55:44.998Z,1.66
2022-12-05T18:58:34.347Z,1.92
2022-12-05T19:01:35.642Z,2.04
2022-12-05T19:04:24.871Z,1.98
2022-12-05T19:07:18.476Z,2.00
2022-12-05T19:10:07.832Z,2.01
2022-12-05T19:13:03.590Z,2.02
2022-12-05T19:15:52.147Z,2.01
2022-12-05T19:18:42.492Z,1.99
2022-12-05T19:21:36.037Z,2.08
2022-12-05T19:24:30.614Z,2.10
2022-12-05T19:27:19.935Z,2.08
2022-12-05T19:30:17.827Z,2.09
2022-12-05T19:33:17.585Z,2.08
2022-12-05T19:36:19.739Z,2.06
2022-12-05T19:39:23.106Z,2.06
2022-12-05T19:42:14.686Z,2.07
2022-12-05T19:45:07.518Z,2.14
2022-12-05T19:47:56.197Z,2.10
2022-12-05T19:50:44.255Z,2.19
2022-12-05T19:53:48.675Z,2.23
2022-12-05T19:57:01.322Z,2.22
2022-12-05T19:59:58.886Z,2.22
2022-12-05T20:03:15.261Z,2.13
2022-12-05T20:06:17.575Z,2.11
2022-12-05T20:09:08.959Z,2.21
2022-12-05T20:11:57.024Z,2.27
2022-12-05T20:14:47.393Z,2.28
2022-12-05T20:17:34.840Z,2.29
2022-12-05T20:20:32.926Z,2.32
2022-12-05T20:23:21.249Z,2.33
2022-12-05T20:26:16.686Z,2.07
2022-12-05T20:29:08.166Z,2.35
2022-12-05T20:32:06.855Z,2.37
2022-12-05T20:35:07.986Z,2.30
2022-12-05T20:38:35.187Z,2.38
2022-12-05T20:41:30.865Z,2.40
2022-12-05T20:44:29.996Z,2.28
2022-12-05T20:47:21.035Z,2.38
2022-12-05T20:50:10.247Z,2.30
2022-12-05T20:52:57.122Z,2.35
2022-12-05T20:55:46.889Z,2.28
2022-12-05T20:58:34.432Z,2.39
2022-12-05T21:01:27.206Z,2.23
2022-12-05T21:04:17.555Z,2.30
2022-12-05T21:07:06.742Z,2.38
2022-12-05T21:09:59.310Z,2.38
2022-12-05T21:12:51.004Z,2.40
2022-12-05T21:15:37.783Z,2.33
2022-12-05T21:18:24.761Z,2.38
2022-12-05T21:21:19.549Z,2.32
2022-12-05T21:24:08.206Z,2.42
2022-12-05T21:26:54.763Z,2.34
2022-12-05T21:29:45.471Z,2.42
2022-12-05T21:32:32.358Z,2.33
2022-12-05T21:35:19.091Z,2.39
2022-12-05T21:38:05.437Z,2.40
2022-12-05T21:40:53.504Z,2.13
2022-12-05T21:43:40.499Z,2.42
2022-12-05T21:46:27.924Z,2.45
2022-12-05T21:49:23.061Z,2.46
2022-12-05T21:52:12.439Z,2.43
2022-12-05T21:54:59.368Z,2.28
2022-12-05T21:57:48.713Z,2.07
2022-12-05T22:00:35.257Z,2.40
2022-12-05T22:03:25.418Z,2.44
2022-12-05T22:06:31.631Z,2.53
2022-12-05T22:09:18.253Z,2.43
2022-12-05T22:12:07.655Z,2.25
2022-12-05T22:15:00.174Z,2.52
2022-12-05T22:17:49.683Z,2.53
2022-12-05T22:20:39.672Z,2.51
2022-12-05T22:23:32.723Z,2.56
2022-12-05T22:26:26.233Z,2.60
2022-12-05T22:29:14.162Z,2.57
2022-12-05T22:32:06.272Z,2.39
2022-12-05T22:34:53.277Z,2.60
2022-12-05T22:37:39.483Z,2.44
2022-12-05T22:40:29.083Z,2.24
2022-12-05T22:43:15.429Z,2.52
2022-12-05T22:46:07.497Z,2.54
2022-12-05T22:48:54.027Z,2.65
2022-12-05T22:51:40.753Z,2.65
2022-12-05T22:54:30.230Z,2.30
2022-12-05T22:57:17.154Z,2.47
2022-12-05T23:00:05.007Z,2.66
2022-12-05T23:02:52.957Z,2.47
2022-12-05T23:05:41.018Z,2.64
2022-12-05T23:08:27.380Z,2.55
2022-12-05T23:11:16.180Z,2.46
2022-12-05T23:14:03.562Z,2.62
2022-12-05T23:16:50.184Z,2.65
2022-12-05T23:19:37.015Z,2.49
2022-12-05T23:22:26.323Z,2.64
2022-12-05T23:25:13.120Z,2.62
2022-12-05T23:27:59.361Z,2.60
2022-12-05T23:30:46.255Z,2.66
2022-12-05T23:33:32.871Z,2.67
2022-12-05T23:36:20.890Z,2.63
2022-12-05T23:39:07.315Z,2.61
2022-12-05T23:41:54.137Z,2.61
2022-12-05T23:44:40.411Z,2.42
2022-12-05T23:47:27.380Z,2.39
2022-12-05T23:50:14.217Z,2.60
2022-12-05T23:53:00.551Z,2.65
2022-12-05T23:55:47.197Z,2.51
2022-12-05T23:58:34.605Z,2.60
